createdAt,value
2019-05-16T08:09:30.588Z,96527.69
2019-05-16T08:12:01.607Z,96527.84
2019-05-16T08:14:30.366Z,96526.52
2019-05-16T08:17:01.149Z,96529.36
2019-05-16T08:19:30.574Z,96519.69
2019-05-16T08:22:01.231Z,96520.19
2019-05-16T08:24:30.948Z,96527.84
2019-05-16T08:27:01.183Z,96511.13
2019-05-16T08:29:31.728Z,96526.47
2019-05-16T08:32:02.240Z,96526.47
2019-05-16T08:34:32.202Z,96520.91
2019-05-16T08:37:01.126Z,96501.58
2019-05-16T08:39:31.419Z,96515.75
2019-05-16T08:42:07.814Z,96521.22
2019-05-16T08:44:32.373Z,96516.46
2019-05-16T08:47:06.295Z,96510.64
2019-05-16T08:49:30.889Z,96498.61
2019-05-16T08:52:01.498Z,96499.39
2019-05-16T08:54:31.834Z,96498.42
2019-05-16T08:57:17.144Z,96500.65
2019-05-16T08:59:33.847Z,96488.61
2019-05-16T09:02:03.356Z,96488.00
2019-05-16T09:04:33.570Z,96482.59
2019-05-16T09:07:01.927Z,96481.70
2019-05-16T09:10:34.258Z,96478.03
2019-05-16T09:11:59.879Z,96478.08
2019-05-16T09:14:31.912Z,96471.70
2019-05-16T09:16:58.295Z,96476.27
2019-05-16T09:19:27.528Z,96476.30
2019-05-16T09:21:58.067Z,96475.53
2019-05-16T09:24:27.202Z,96451.12
2019-05-16T09:26:57.898Z,96463.30
2019-05-16T09:29:27.294Z,96461.16
2019-05-16T09:32:09.048Z,96453.76
2019-05-16T09:34:28.396Z,96457.48
2019-05-16T09:37:00.465Z,96456.83
2019-05-16T09:39:27.728Z,96460.39
2019-05-16T09:41:58.679Z,96457.22
2019-05-16T09:44:27.247Z,96452.33
2019-05-16T09:46:56.980Z,96457.41
2019-05-16T09:49:26.212Z,96444.13
2019-05-16T09:51:56.731Z,96446.84
2019-05-16T09:54:27.173Z,96448.56
2019-05-16T09:56:56.991Z,96442.50
2019-05-16T09:59:26.377Z,96436.00
2019-05-16T10:01:57.107Z,96437.81
2019-05-16T10:04:26.701Z,96428.95
2019-05-16T10:06:57.018Z,96427.30
2019-05-16T10:09:40.283Z,96430.17
2019-05-16T10:12:10.411Z,96426.31
2019-05-16T10:14:26.866Z,96430.52
2019-05-16T10:16:57.729Z,96427.83
2019-05-16T10:19:27.568Z,96425.14
2019-05-16T10:22:00.027Z,96429.55
2019-05-16T10:24:26.848Z,96413.23
2019-05-16T10:26:57.180Z,96418.47
2019-05-16T10:29:27.350Z,96414.77
2019-05-16T10:31:56.870Z,96407.75
2019-05-16T10:34:26.598Z,96405.38
2019-05-16T10:36:57.559Z,96406.93
2019-05-16T10:39:26.754Z,96411.28
2019-05-16T10:41:57.400Z,96410.27
2019-05-16T10:44:28.088Z,96405.45
2019-05-16T10:46:55.463Z,96404.47
2019-05-16T10:49:34.295Z,96340.64
2019-05-16T10:51:53.794Z,96401.80
2019-05-16T10:54:22.196Z,96393.55
2019-05-16T10:56:50.838Z,96383.66
2019-05-16T10:59:54.547Z,96385.17
2019-05-16T11:01:49.585Z,96382.81
2019-05-16T11:04:28.469Z,96378.63
2019-05-16T11:06:48.110Z,96382.83
2019-05-16T11:09:17.352Z,96380.49
2019-05-16T11:11:47.616Z,96370.41
2019-05-16T11:14:17.373Z,96374.62
2019-05-16T11:16:47.395Z,96371.41
2019-05-16T11:19:21.264Z,96368.06
2019-05-16T11:21:46.879Z,96367.05
2019-05-16T11:24:15.459Z,96368.08
2019-05-16T11:26:43.811Z,96361.35
2019-05-16T11:29:12.111Z,96355.81
2019-05-16T11:31:40.433Z,96355.63
2019-05-16T11:34:08.848Z,96355.48
2019-05-16T11:36:37.674Z,96351.77
2019-05-16T11:39:08.695Z,96350.25
2019-05-16T11:41:37.276Z,96353.11
2019-05-16T11:44:06.691Z,96352.95
2019-05-16T11:46:37.427Z,96348.92
2019-05-16T11:49:05.406Z,96335.46
2019-05-16T11:51:33.745Z,96346.06
2019-05-16T11:54:02.283Z,96344.38
2019-05-16T11:56:30.606Z,96335.98
2019-05-16T11:58:58.912Z,96334.13
2019-05-16T12:01:27.698Z,96330.92
2019-05-16T12:03:57.514Z,96331.79
2019-05-16T12:06:26.877Z,96327.25
2019-05-16T12:08:55.383Z,96328.91
2019-05-16T12:11:23.712Z,96328.91
2019-05-16T12:13:52.512Z,95936.52
2019-05-16T12:16:20.861Z,96327.56
2019-05-16T12:18:49.175Z,96320.01
2019-05-16T12:21:17.497Z,96325.06
2019-05-16T12:23:47.335Z,96322.53
2019-05-16T12:26:17.535Z,96324.70
2019-05-16T12:28:45.820Z,96319.84
2019-05-16T12:31:17.141Z,96317.49
2019-05-16T12:33:44.286Z,96318.83
2019-05-16T12:36:12.603Z,96313.28
2019-05-16T12:38:41.005Z,96316.44
2019-05-16T12:41:09.320Z,96306.35
2019-05-16T12:43:48.900Z,96306.19
2019-05-16T12:46:08.338Z,96304.84
2019-05-16T12:48:37.519Z,96304.33
2019-05-16T12:51:08.300Z,96298.95
2019-05-16T12:53:36.717Z,96302.00
2019-05-16T12:56:05.417Z,96304.69
2019-05-16T12:58:42.169Z,96297.97
2019-05-16T13:01:04.016Z,96295.12
2019-05-16T13:03:32.580Z,96288.72
2019-05-16T13:06:00.939Z,96286.55
2019-05-16T13:08:29.278Z,96285.88
2019-05-16T13:10:57.945Z,96275.63
2019-05-16T13:13:27.866Z,96274.95
2019-05-16T13:15:56.387Z,96274.09
2019-05-16T13:18:27.314Z,96274.45
2019-05-16T13:20:57.138Z,96268.56
2019-05-16T13:23:26.931Z,96270.26
2019-05-16T13:25:57.326Z,96262.34
2019-05-16T13:28:25.058Z,96263.86
2019-05-16T13:30:53.431Z,96259.31
2019-05-16T13:33:21.753Z,96253.11
2019-05-16T13:35:50.227Z,96245.20
2019-05-16T13:38:18.535Z,96252.44
2019-05-16T13:40:46.945Z,96254.97
2019-05-16T13:43:17.492Z,96237.48
2019-05-16T13:45:47.229Z,96242.03
2019-05-16T13:48:17.246Z,96241.68
2019-05-16T13:50:47.403Z,96237.49
2019-05-16T13:53:16.374Z,96228.73
2019-05-16T13:55:47.802Z,96225.56
2019-05-16T13:58:17.895Z,96224.53
2019-05-16T14:00:47.998Z,96218.64
2019-05-16T14:03:17.904Z,96217.65
2019-05-16T14:05:47.843Z,96214.92
2019-05-16T14:08:17.044Z,96210.72
2019-05-16T14:10:48.559Z,96214.63
2019-05-16T14:13:16.540Z,96207.22
2019-05-16T14:15:47.274Z,96201.63
2019-05-16T14:18:17.472Z,96197.59
2019-05-16T14:20:46.573Z,96196.23
2019-05-16T14:23:17.703Z,96192.03
2019-05-16T14:25:48.069Z,96195.39
2019-05-16T14:28:17.341Z,96197.94
2019-05-16T14:30:46.816Z,96197.08
2019-05-16T14:33:17.207Z,96192.56
2019-05-16T14:35:47.292Z,96192.03
2019-05-16T14:38:17.572Z,96184.95
2019-05-16T14:40:50.041Z,96187.46
2019-05-16T14:43:17.128Z,96184.77
2019-05-16T14:45:46.656Z,96186.95
2019-05-16T14:48:18.162Z,96185.27
2019-05-16T14:50:47.054Z,96188.78
2019-05-16T14:53:17.936Z,96188.11
2019-05-16T14:55:47.545Z,96165.08
2019-05-16T14:58:15.818Z,96188.25
2019-05-16T15:00:48.463Z,96177.79
2019-05-16T15:03:14.434Z,96182.33
2019-05-16T15:05:43.230Z,96171.05
2019-05-16T15:08:11.733Z,96170.21
2019-05-16T15:10:40.042Z,96178.80
2019-05-16T15:13:08.528Z,96170.73
2019-05-16T15:15:37.653Z,96172.08
2019-05-16T15:18:08.189Z,96172.91
2019-05-16T15:20:36.629Z,96167.17
2019-05-16T15:23:07.622Z,96170.55
2019-05-16T15:25:37.390Z,96149.55
2019-05-16T15:28:07.306Z,96160.28
2019-05-16T15:30:39.091Z,96164.33
2019-05-16T15:33:08.512Z,96161.98
2019-05-16T15:35:38.073Z,96163.80
2019-05-16T15:38:07.813Z,96161.28
2019-05-16T15:40:37.929Z,96153.52
2019-05-16T15:43:07.933Z,96156.88
2019-05-16T15:45:43.368Z,96159.41
2019-05-16T15:48:12.200Z,96152.83
2019-05-16T15:50:40.945Z,96141.92
2019-05-16T15:53:09.423Z,96157.34
2019-05-16T15:55:38.080Z,96145.88
2019-05-16T15:58:07.397Z,96137.12
2019-05-16T16:00:39.819Z,96135.43
2019-05-16T16:03:08.269Z,96132.88
2019-05-16T16:05:37.555Z,96129.19
2019-05-16T16:08:06.947Z,96127.47
2019-05-16T16:10:37.946Z,96131.14
2019-05-16T16:13:06.869Z,96125.07
2019-05-16T16:15:49.775Z,96117.84
2019-05-16T16:18:08.969Z,96119.66
2019-05-16T16:20:37.052Z,96119.80
2019-05-16T16:23:06.816Z,96115.76
2019-05-16T16:25:35.357Z,96116.94
2019-05-16T16:28:07.137Z,96116.27
2019-05-16T16:30:37.083Z,96111.92
2019-05-16T16:33:19.058Z,96108.42
2019-05-16T16:35:37.850Z,96111.11
2019-05-16T16:38:07.040Z,96109.94
2019-05-16T16:40:36.831Z,96110.94
2019-05-16T16:43:07.987Z,96108.92
2019-05-16T16:45:35.123Z,96113.48
2019-05-16T16:48:03.624Z,96112.51
2019-05-16T16:50:31.988Z,96110.16
2019-05-16T16:53:00.287Z,96111.50
2019-05-16T16:55:28.704Z,96110.67
2019-05-16T16:57:59.607Z,96107.48
2019-05-16T17:00:28.025Z,96104.13
2019-05-16T17:03:05.674Z,96103.47
2019-05-16T17:05:29.454Z,96096.28
2019-05-16T17:07:57.768Z,96105.35
2019-05-16T17:10:27.507Z,96098.95
2019-05-16T17:12:57.631Z,96100.81
2019-05-16T17:15:27.194Z,96099.64
2019-05-16T17:17:57.422Z,96045.48
2019-05-16T17:20:25.991Z,96098.31
2019-05-16T17:22:54.298Z,96095.30
2019-05-16T17:25:22.718Z,96095.12
2019-05-16T17:27:51.023Z,96101.20
2019-05-16T17:30:20.704Z,96102.23
2019-05-16T17:32:49.269Z,96093.48
2019-05-16T17:35:19.012Z,96096.86
2019-05-16T17:37:48.591Z,96097.89
2019-05-16T17:40:17.893Z,96093.67
2019-05-16T17:42:47.724Z,96096.56
2019-05-16T17:45:18.410Z,96095.38
2019-05-16T17:47:46.906Z,96096.38
2019-05-16T17:50:17.561Z,96097.06
2019-05-16T17:52:47.605Z,96095.08
2019-05-16T17:55:17.442Z,96099.97
2019-05-16T17:57:46.257Z,96092.58
2019-05-16T18:00:24.867Z,96101.91
2019-05-16T18:02:46.561Z,96096.08
2019-05-16T18:05:17.019Z,96101.65
2019-05-16T18:07:47.456Z,96100.35
2019-05-16T18:10:17.702Z,96100.05
2019-05-16T18:12:48.062Z,96031.48
2019-05-16T18:15:20.463Z,96094.30
2019-05-16T18:17:48.889Z,96076.00
2019-05-16T18:20:18.400Z,96076.16
2019-05-16T18:22:47.285Z,96089.60
2019-05-16T18:25:16.352Z,96097.47
2019-05-16T18:27:44.779Z,96095.14
2019-05-16T18:30:13.318Z,96101.86
2019-05-16T18:32:41.713Z,96099.49
2019-05-16T18:35:10.374Z,96089.77
2019-05-16T18:37:38.698Z,96090.95
2019-05-16T18:40:08.152Z,96087.41
2019-05-16T18:42:37.048Z,96086.22
2019-05-16T18:45:08.772Z,96078.35
2019-05-16T18:47:37.939Z,96072.30
2019-05-16T18:50:10.368Z,96078.83
2019-05-16T18:52:38.758Z,96077.84
2019-05-16T18:55:08.539Z,96072.78
2019-05-16T18:57:37.791Z,96065.10
2019-05-16T19:00:10.575Z,96069.80
2019-05-16T19:02:37.516Z,96067.44
2019-05-16T19:05:07.165Z,96071.31
2019-05-16T19:07:36.914Z,96068.78
2019-05-16T19:10:07.346Z,96065.09
2019-05-16T19:12:37.243Z,96069.29
2019-05-16T19:15:08.888Z,96065.58
2019-05-16T19:17:37.496Z,96063.05
2019-05-16T19:20:06.802Z,96064.39
2019-05-16T19:22:37.177Z,96064.73
2019-05-16T19:25:07.084Z,96063.23
2019-05-16T19:27:37.093Z,96064.58
2019-05-16T19:30:07.286Z,96062.20
2019-05-16T19:32:39.074Z,96062.05
2019-05-16T19:35:07.377Z,96063.70
2019-05-16T19:37:40.492Z,96068.60
2019-05-16T19:40:06.568Z,96064.89
2019-05-16T19:42:36.808Z,96067.06
2019-05-16T19:45:09.017Z,96064.73
2019-05-16T19:47:41.063Z,96062.04
2019-05-16T19:50:07.732Z,96065.20
2019-05-16T19:52:36.703Z,96063.38
2019-05-16T19:55:09.369Z,96064.21
2019-05-16T19:57:37.746Z,96056.33
2019-05-16T20:00:07.491Z,96056.33
2019-05-16T20:02:36.839Z,96068.41
2019-05-16T20:05:06.631Z,96070.94
2019-05-16T20:07:37.267Z,96068.25
2019-05-16T20:10:09.397Z,96077.66
2019-05-16T20:12:37.209Z,96072.80
2019-05-16T20:17:52.161Z,96066.74
2019-05-16T20:20:11.635Z,96045.75
2019-05-16T20:22:40.114Z,96069.07
2019-05-16T20:25:08.754Z,96063.70
2019-05-16T20:27:37.175Z,96064.20
2019-05-16T20:30:07.037Z,96058.31
2019-05-16T20:32:37.174Z,96069.73
2019-05-16T20:35:08.783Z,96064.88
2019-05-16T20:37:36.827Z,96067.56
2019-05-16T20:40:09.214Z,96066.22
2019-05-16T20:42:36.942Z,96065.20
2019-05-16T20:45:08.097Z,96058.82
2019-05-16T20:47:36.436Z,96058.31
2019-05-16T20:50:07.620Z,96058.82
2019-05-16T20:52:37.801Z,96058.31
2019-05-16T20:55:07.381Z,96056.13
2019-05-16T20:57:37.813Z,96048.58
2019-05-16T21:00:07.202Z,96048.89
2019-05-16T21:02:37.930Z,96053.45
2019-05-16T21:05:06.782Z,96047.87
2019-05-16T21:07:37.594Z,96048.89
2019-05-16T21:10:08.033Z,96032.46
2019-05-16T21:12:40.060Z,96049.58
2019-05-16T21:15:07.395Z,96050.59
2019-05-16T21:17:35.855Z,96040.33
2019-05-16T21:20:07.214Z,96039.17
2019-05-16T21:22:37.131Z,96034.28
2019-05-16T21:25:06.351Z,96033.61
2019-05-16T21:27:37.617Z,96033.80
2019-05-16T21:30:07.518Z,96024.39
2019-05-16T21:32:36.650Z,96033.80
2019-05-16T21:35:07.246Z,96028.07
2019-05-16T21:37:37.411Z,96019.02
2019-05-16T21:40:08.183Z,96017.31
2019-05-16T21:42:36.645Z,96011.42
2019-05-16T21:45:07.153Z,96010.59
2019-05-16T21:47:36.917Z,96007.39
2019-05-16T21:50:07.825Z,96005.56
2019-05-16T21:52:36.523Z,96002.52
2019-05-16T21:55:07.252Z,95998.49
2019-05-16T21:57:37.708Z,95999.00
2019-05-16T22:00:13.388Z,95995.29
2019-05-16T22:02:41.757Z,95994.97
2019-05-16T22:05:10.323Z,95998.17
2019-05-16T22:07:38.683Z,95897.17
2019-05-16T22:10:07.447Z,95995.66
2019-05-16T22:12:38.203Z,95998.66
2019-05-16T22:15:06.779Z,95997.31
2019-05-16T22:17:36.640Z,95992.96
2019-05-16T22:20:07.144Z,95993.28
2019-05-16T22:22:38.607Z,95991.10
2019-05-16T22:25:07.793Z,95988.41
2019-05-16T22:27:36.481Z,95983.20
2019-05-16T22:30:08.149Z,95986.23
2019-05-16T22:32:36.445Z,95974.30
2019-05-16T22:35:08.050Z,95973.98
2019-05-16T22:37:48.856Z,95966.44
2019-05-16T22:40:06.925Z,95968.61
2019-05-16T22:42:37.286Z,95962.72
2019-05-16T22:45:10.699Z,95954.14
2019-05-16T22:47:39.039Z,95955.69
2019-05-16T22:50:07.990Z,95949.95
2019-05-16T22:52:36.854Z,95950.30
2019-05-16T22:55:07.495Z,95945.92
2019-05-16T22:57:35.840Z,95945.09
2019-05-16T23:00:10.939Z,95941.89
2019-05-16T23:02:39.317Z,95939.71
2019-05-16T23:05:07.692Z,95939.71
2019-05-16T23:07:36.733Z,95934.19
2019-05-16T23:10:07.378Z,95932.64
2019-05-16T23:12:37.172Z,95925.09
2019-05-16T23:15:07.007Z,95935.34
2019-05-16T23:17:37.533Z,95924.58
2019-05-16T23:20:06.493Z,95928.30
2019-05-16T23:22:36.757Z,95921.22
2019-05-16T23:25:06.725Z,95919.05
2019-05-16T23:27:36.844Z,95915.84
2019-05-16T23:30:09.052Z,95916.05
2019-05-16T23:32:37.398Z,95915.53
2019-05-16T23:35:07.292Z,95917.39
2019-05-16T23:37:37.017Z,95917.05
2019-05-16T23:40:09.679Z,95917.05
2019-05-16T23:42:37.986Z,95920.56
2019-05-16T23:45:09.240Z,95916.72
2019-05-16T23:47:37.714Z,95898.78
2019-05-16T23:50:07.928Z,95920.24
2019-05-16T23:52:36.927Z,95912.69
2019-05-16T23:55:08.326Z,95903.77
2019-05-16T23:57:37.515Z,95905.97
